Time;durP1;ratioP1;P1;durP2;ratioP2;P2;SDS_P1;SDS_P2;PMS_P1;PMS_P2;Temp;Humidity;BMP_temperature;BMP_pressure;BME280_temperature;BME280_humidity;BME280_pressure;Samples;Min_cycle;Max_cycle;Signal;HPM_P1;HPM_P2
2021/05/25 00:00:04;;;;;;;2.10;1.98;;;;;;;;;;2070324;28;20252;-58
2021/05/25 00:01:12;;;;;;;2.17;1.80;;;;;;;;;;2073730;28;20169;-59
2021/05/25 00:02:13;;;;;;;1.90;1.80;;;;;;;;;;2071916;28;20873;-60
2021/05/25 00:03:14;;;;;;;2.38;2.28;;;;;;;;;;2073695;28;20189;-59
2021/05/25 00:04:14;;;;;;;1.90;1.80;;;;;;;;;;2069121;28;20739;-61
2021/05/25 00:05:16;;;;;;;2.40;2.20;;;;;;;;;;2073294;28;20271;-65
2021/05/25 00:06:16;;;;;;;2.22;2.13;;;;;;;;;;2073499;28;20204;-60
2021/05/25 00:07:17;;;;;;;2.00;1.80;;;;;;;;;;2064195;28;20249;-58
2021/05/25 00:08:17;;;;;;;1.50;1.50;;;;;;;;;;2064516;28;20989;-60
2021/05/25 00:09:17;;;;;;;2.55;2.10;;;;;;;;;;2072671;28;20644;-57
2021/05/25 00:10:18;;;;;;;2.08;1.98;;;;;;;;;;2064627;28;20184;-58
2021/05/25 00:11:18;;;;;;;2.40;2.30;;;;;;;;;;2064994;28;20169;-59
2021/05/25 00:12:18;;;;;;;2.17;2.08;;;;;;;;;;2064421;28;20181;-54
2021/05/25 00:13:19;;;;;;;2.00;1.90;;;;;;;;;;2064845;28;20293;-61
2021/05/25 00:14:20;;;;;;;1.63;1.63;;;;;;;;;;2064032;28;20278;-63
2021/05/25 00:15:22;;;;;;;1.52;1.52;;;;;;;;;;2064843;28;20186;-59
2021/05/25 00:16:23;;;;;;;1.98;1.85;;;;;;;;;;2072584;28;20517;-60
2021/05/25 00:17:23;;;;;;;2.35;2.03;;;;;;;;;;2074103;28;20176;-59
2021/05/25 00:18:23;;;;;;;1.75;1.65;;;;;;;;;;2073187;28;20172;-60
2021/05/25 00:19:24;;;;;;;1.90;1.80;;;;;;;;;;2073522;28;20175;-61
2021/05/25 00:20:25;;;;;;;2.30;2.20;;;;;;;;;;2073378;28;20260;-59
2021/05/25 00:21:25;;;;;;;2.40;2.30;;;;;;;;;;2065218;28;20744;-62
2021/05/25 00:22:25;;;;;;;2.50;2.05;;;;;;;;;;2056622;28;20229;-59
2021/05/25 00:23:26;;;;;;;2.90;2.40;;;;;;;;;;2057337;28;20729;-59
2021/05/25 00:24:26;;;;;;;2.28;1.95;;;;;;;;;;2063189;28;20201;-60
2021/05/25 00:25:26;;;;;;;4.97;2.10;;;;;;;;;;2065066;28;20169;-61
2021/05/25 00:26:27;;;;;;;2.65;2.45;;;;;;;;;;2062572;28;20261;-60
2021/05/25 00:27:27;;;;;;;2.30;2.20;;;;;;;;;;2065512;28;20177;-61
2021/05/25 00:28:27;;;;;;;2.50;2.35;;;;;;;;;;2055745;28;20218;-59
2021/05/25 00:29:28;;;;;;;2.28;2.03;;;;;;;;;;2063857;28;20639;-54
2021/05/25 00:30:28;;;;;;;2.72;2.53;;;;;;;;;;2056154;28;20586;-58
2021/05/25 00:31:28;;;;;;;2.70;2.50;;;;;;;;;;2064537;28;20198;-57
2021/05/25 00:32:38;;;;;;;2.40;2.30;;;;;;;;;;2073633;28;20196;-56
2021/05/25 00:33:38;;;;;;;2.42;2.33;;;;;;;;;;2073775;28;20185;-54
2021/05/25 00:34:38;;;;;;;2.72;2.53;;;;;;;;;;2073280;28;20172;-55
2021/05/25 00:35:40;;;;;;;2.28;2.17;;;;;;;;;;2073829;28;20200;-60
2021/05/25 00:36:40;;;;;;;2.50;2.40;;;;;;;;;;2072939;28;20560;-59
2021/05/25 00:37:41;;;;;;;2.42;2.28;;;;;;;;;;2073414;28;20165;-55
2021/05/25 00:38:41;;;;;;;2.97;2.70;;;;;;;;;;2068754;28;20211;-56
2021/05/25 00:39:42;;;;;;;2.80;2.60;;;;;;;;;;2073271;28;20177;-59
2021/05/25 00:40:42;;;;;;;2.88;2.75;;;;;;;;;;2073600;28;20215;-54
2021/05/25 00:41:42;;;;;;;2.90;2.70;;;;;;;;;;2073210;28;20264;-57
2021/05/25 00:42:43;;;;;;;3.08;2.85;;;;;;;;;;2069362;28;20161;-58
2021/05/25 00:43:44;;;;;;;3.13;2.78;;;;;;;;;;2072414;28;20184;-59
2021/05/25 00:44:44;;;;;;;2.97;2.72;;;;;;;;;;2072950;28;20244;-59
2021/05/25 00:45:44;;;;;;;3.15;2.95;;;;;;;;;;2071504;28;20227;-60
2021/05/25 00:46:44;;;;;;;2.90;2.70;;;;;;;;;;2070038;28;20264;-58
2021/05/25 00:47:45;;;;;;;2.42;2.33;;;;;;;;;;2073005;28;20195;-59
2021/05/25 00:48:45;;;;;;;3.15;2.95;;;;;;;;;;2073529;28;20206;-59
2021/05/25 00:49:45;;;;;;;2.80;2.70;;;;;;;;;;2064086;28;20216;-61
2021/05/25 00:50:46;;;;;;;3.30;3.05;;;;;;;;;;2065231;28;20244;-60
2021/05/25 00:51:46;;;;;;;2.88;2.67;;;;;;;;;;2072996;28;20574;-59
2021/05/25 00:52:48;;;;;;;3.13;2.83;;;;;;;;;;2073810;28;20217;-61
2021/05/25 00:53:48;;;;;;;3.63;3.33;;;;;;;;;;2073038;28;20259;-61
2021/05/25 00:54:48;;;;;;;3.63;3.40;;;;;;;;;;2060658;28;20173;-59
2021/05/25 00:55:49;;;;;;;6.00;4.80;;;;;;;;;;2061165;28;20208;-60
2021/05/25 00:56:49;;;;;;;4.90;4.43;;;;;;;;;;2064892;28;20213;-59
2021/05/25 00:57:50;;;;;;;4.82;4.53;;;;;;;;;;2063441;28;20174;-56
2021/05/25 00:58:51;;;;;;;5.78;5.10;;;;;;;;;;2073199;28;20185;-59
2021/05/25 00:59:51;;;;;;;5.85;5.40;;;;;;;;;;2063265;28;20166;-61
2021/05/25 01:00:51;;;;;;;6.32;5.80;;;;;;;;;;2065041;28;20292;-58
2021/05/25 01:01:52;;;;;;;6.85;6.15;;;;;;;;;;2072364;28;20562;-60
2021/05/25 01:02:52;;;;;;;6.50;5.95;;;;;;;;;;2073122;28;20691;-59
2021/05/25 01:03:53;;;;;;;6.55;5.95;;;;;;;;;;2072289;28;20169;-61
2021/05/25 01:04:53;;;;;;;7.80;7.00;;;;;;;;;;2068084;28;20175;-58
2021/05/25 01:05:53;;;;;;;7.85;6.95;;;;;;;;;;2056297;28;20698;-58
2021/05/25 01:06:54;;;;;;;6.75;6.15;;;;;;;;;;2063195;28;20591;-58
2021/05/25 01:07:54;;;;;;;7.75;7.07;;;;;;;;;;2070880;28;20181;-61
2021/05/25 01:08:58;;;;;;;8.07;7.20;;;;;;;;;;2072674;28;20173;-60
2021/05/25 01:10:00;;;;;;;7.97;7.22;;;;;;;;;;2071159;28;20200;-58
2021/05/25 01:11:06;;;;;;;7.55;6.70;;;;;;;;;;2073510;28;20185;-62
2021/05/25 01:12:07;;;;;;;8.85;6.68;;;;;;;;;;2057543;28;20197;-59
2021/05/25 01:13:20;;;;;;;7.28;6.68;;;;;;;;;;2063423;28;20181;-62
2021/05/25 01:14:20;;;;;;;7.70;6.90;;;;;;;;;;2065889;28;20162;-60
2021/05/25 01:15:21;;;;;;;8.77;7.93;;;;;;;;;;2072173;28;20208;-63
2021/05/25 01:16:23;;;;;;;8.05;7.25;;;;;;;;;;2072990;28;20168;-60
2021/05/25 01:17:24;;;;;;;7.65;7.05;;;;;;;;;;2072699;28;20243;-62
2021/05/25 01:18:24;;;;;;;8.07;7.28;;;;;;;;;;2072401;28;20173;-58
2021/05/25 01:19:24;;;;;;;8.20;7.35;;;;;;;;;;2072202;28;20238;-59
2021/05/25 01:20:26;;;;;;;8.00;7.18;;;;;;;;;;2073616;28;20546;-59
2021/05/25 01:21:26;;;;;;;8.27;7.53;;;;;;;;;;2072542;28;20234;-60
2021/05/25 01:22:27;;;;;;;7.25;6.65;;;;;;;;;;2071866;28;20997;-56
2021/05/25 01:23:28;;;;;;;8.38;7.57;;;;;;;;;;2072822;28;20209;-59
2021/05/25 01:24:32;;;;;;;9.02;8.13;;;;;;;;;;2071273;28;20178;-58
2021/05/25 01:25:32;;;;;;;7.78;7.03;;;;;;;;;;2072877;28;20172;-60
2021/05/25 01:26:33;;;;;;;8.43;7.63;;;;;;;;;;2071006;28;20273;-60
2021/05/25 01:27:33;;;;;;;8.55;7.75;;;;;;;;;;2063799;28;20173;-61
2021/05/25 01:28:34;;;;;;;8.00;7.30;;;;;;;;;;2055778;28;20276;-62
2021/05/25 01:29:35;;;;;;;8.88;7.97;;;;;;;;;;2062942;28;20193;-59
2021/05/25 01:30:37;;;;;;;8.18;7.40;;;;;;;;;;2073373;28;20550;-59
2021/05/25 01:31:37;;;;;;;8.40;7.70;;;;;;;;;;2073182;28;20196;-59
2021/05/25 01:32:37;;;;;;;8.25;7.45;;;;;;;;;;2073036;28;20161;-61
2021/05/25 01:33:38;;;;;;;8.90;8.00;;;;;;;;;;2072101;28;20224;-59
2021/05/25 01:34:38;;;;;;;8.27;7.50;;;;;;;;;;2073394;28;20172;-61
2021/05/25 01:35:39;;;;;;;8.68;7.97;;;;;;;;;;2063285;28;20217;-60
2021/05/25 01:36:39;;;;;;;8.63;7.82;;;;;;;;;;2056755;28;20166;-59
2021/05/25 01:37:39;;;;;;;8.90;8.13;;;;;;;;;;2059005;28;20243;-58
2021/05/25 01:38:40;;;;;;;8.55;7.80;;;;;;;;;;2062604;28;20209;-60
2021/05/25 01:39:41;;;;;;;8.70;7.90;;;;;;;;;;2064476;28;20204;-62
2021/05/25 01:40:41;;;;;;;10.05;8.23;;;;;;;;;;2064534;28;20851;-59
2021/05/25 01:41:42;;;;;;;8.32;7.55;;;;;;;;;;2062824;28;20173;-61
2021/05/25 01:42:42;;;;;;;7.93;7.22;;;;;;;;;;2072829;28;20177;-59
2021/05/25 01:43:42;;;;;;;7.38;6.78;;;;;;;;;;2063762;28;20194;-61
2021/05/25 01:44:43;;;;;;;6.60;6.10;;;;;;;;;;2063908;28;20218;-60
2021/05/25 01:45:43;;;;;;;6.28;5.85;;;;;;;;;;2070633;28;20185;-61
2021/05/25 01:46:44;;;;;;;6.10;5.60;;;;;;;;;;2072841;28;20169;-58
2021/05/25 01:47:45;;;;;;;6.25;5.85;;;;;;;;;;2070166;28;20789;-60
2021/05/25 01:48:47;;;;;;;6.60;6.00;;;;;;;;;;2072231;28;20181;-61
2021/05/25 01:49:48;;;;;;;6.88;6.30;;;;;;;;;;2072675;28;20215;-63
2021/05/25 01:50:48;;;;;;;6.47;5.85;;;;;;;;;;2064077;28;20166;-63
2021/05/25 01:51:49;;;;;;;6.55;6.05;;;;;;;;;;2060902;28;20269;-63
2021/05/25 01:52:54;;;;;;;6.30;5.80;;;;;;;;;;2063881;28;20204;-64
2021/05/25 01:53:55;;;;;;;6.40;5.80;;;;;;;;;;2069927;28;20173;-60
2021/05/25 01:54:58;;;;;;;6.13;5.68;;;;;;;;;;2073431;28;20172;-62
2021/05/25 01:55:59;;;;;;;6.03;5.55;;;;;;;;;;2064472;28;20237;-62
2021/05/25 01:56:59;;;;;;;6.28;5.68;;;;;;;;;;2058967;28;20630;-63
2021/05/25 01:58:07;;;;;;;6.05;5.55;;;;;;;;;;2063604;28;20200;-65
2021/05/25 01:59:08;;;;;;;5.47;5.07;;;;;;;;;;2061537;28;20637;-64
2021/05/25 02:00:08;;;;;;;5.70;5.13;;;;;;;;;;2063087;28;20189;-64
2021/05/25 02:01:10;;;;;;;5.72;5.22;;;;;;;;;;2073092;28;20173;-62
2021/05/25 02:02:11;;;;;;;6.10;5.60;;;;;;;;;;2063315;28;20188;-63
2021/05/25 02:03:11;;;;;;;5.75;5.35;;;;;;;;;;2057070;28;20217;-61
2021/05/25 02:04:12;;;;;;;6.70;4.90;;;;;;;;;;2059790;28;20173;-63
2021/05/25 02:05:12;;;;;;;6.47;5.30;;;;;;;;;;2063677;28;20170;-62
2021/05/25 02:06:12;;;;;;;5.78;4.93;;;;;;;;;;2073484;28;20633;-62
2021/05/25 02:07:16;;;;;;;5.72;5.03;;;;;;;;;;2067560;28;20260;-63
2021/05/25 02:08:18;;;;;;;5.63;5.22;;;;;;;;;;2065431;28;20200;-64
2021/05/25 02:09:18;;;;;;;5.32;4.93;;;;;;;;;;2072686;28;20522;-63
2021/05/25 02:10:25;;;;;;;5.53;5.00;;;;;;;;;;2066412;28;20180;-63
2021/05/25 02:11:26;;;;;;;5.10;4.75;;;;;;;;;;2073399;28;20165;-59
2021/05/25 02:12:26;;;;;;;5.38;4.85;;;;;;;;;;2072595;28;20187;-61
2021/05/25 02:13:28;;;;;;;5.15;4.75;;;;;;;;;;2066311;28;20190;-62
2021/05/25 02:14:28;;;;;;;5.10;4.70;;;;;;;;;;2072963;28;20707;-64
2021/05/25 02:15:28;;;;;;;5.38;4.97;;;;;;;;;;2072653;28;20161;-63
2021/05/25 02:16:29;;;;;;;5.10;4.68;;;;;;;;;;2071650;28;20860;-62
2021/05/25 02:17:29;;;;;;;5.22;4.88;;;;;;;;;;2066885;28;20178;-61
2021/05/25 02:18:30;;;;;;;5.40;4.90;;;;;;;;;;2073105;28;20179;-62
2021/05/25 02:19:30;;;;;;;5.63;5.22;;;;;;;;;;2063551;28;20801;-62
2021/05/25 02:20:31;;;;;;;5.63;5.13;;;;;;;;;;2062560;28;20190;-62
2021/05/25 02:21:31;;;;;;;5.47;5.05;;;;;;;;;;2064801;28;20660;-62
2021/05/25 02:22:31;;;;;;;6.05;5.55;;;;;;;;;;2067838;28;21093;-62
2021/05/25 02:23:32;;;;;;;5.63;5.18;;;;;;;;;;2064595;28;20170;-60
2021/05/25 02:24:32;;;;;;;5.95;5.47;;;;;;;;;;2064045;28;20285;-61
2021/05/25 02:25:32;;;;;;;6.15;5.55;;;;;;;;;;2063360;28;20182;-61
2021/05/25 02:26:32;;;;;;;5.18;4.75;;;;;;;;;;2064847;28;20174;-61
2021/05/25 02:27:33;;;;;;;5.55;5.05;;;;;;;;;;2063935;28;20577;-62
2021/05/25 02:28:33;;;;;;;5.93;5.43;;;;;;;;;;2063599;28;20663;-62
2021/05/25 02:29:33;;;;;;;5.55;5.15;;;;;;;;;;2070735;28;20236;-62
2021/05/25 02:30:35;;;;;;;5.38;4.95;;;;;;;;;;2071889;28;20173;-59
2021/05/25 02:31:35;;;;;;;5.32;4.97;;;;;;;;;;2072054;28;20556;-61
2021/05/25 02:32:35;;;;;;;5.72;5.22;;;;;;;;;;2072283;28;20177;-62
2021/05/25 02:33:36;;;;;;;5.63;5.13;;;;;;;;;;2069171;28;20193;-62
2021/05/25 02:34:36;;;;;;;4.97;4.50;;;;;;;;;;2071160;28;20292;-62
2021/05/25 02:35:37;;;;;;;5.22;4.72;;;;;;;;;;2071014;28;20235;-64
2021/05/25 02:36:37;;;;;;;5.47;5.07;;;;;;;;;;2068497;28;20248;-61
2021/05/25 02:37:37;;;;;;;5.60;5.20;;;;;;;;;;2072818;28;20204;-61
2021/05/25 02:38:39;;;;;;;5.40;4.93;;;;;;;;;;2073331;28;20561;-61
2021/05/25 02:39:39;;;;;;;5.88;5.35;;;;;;;;;;2071123;28;20177;-62
2021/05/25 02:40:40;;;;;;;6.00;5.50;;;;;;;;;;2068144;28;20168;-62
2021/05/25 02:41:40;;;;;;;6.93;5.20;;;;;;;;;;2062259;28;20276;-62
2021/05/25 02:42:40;;;;;;;5.95;5.50;;;;;;;;;;2060579;28;20668;-61
2021/05/25 02:43:41;;;;;;;6.80;6.20;;;;;;;;;;2064519;28;20221;-60
2021/05/25 02:44:41;;;;;;;5.45;5.00;;;;;;;;;;2063651;28;20200;-60
2021/05/25 02:45:41;;;;;;;6.88;6.38;;;;;;;;;;2068997;28;20169;-60
2021/05/25 02:46:42;;;;;;;6.90;6.30;;;;;;;;;;2063673;28;20240;-62
2021/05/25 02:47:42;;;;;;;6.20;5.75;;;;;;;;;;2065761;28;20200;-60
2021/05/25 02:48:42;;;;;;;6.32;5.72;;;;;;;;;;2068523;28;20212;-60
2021/05/25 02:49:42;;;;;;;6.53;5.82;;;;;;;;;;2064461;28;20325;-61
2021/05/25 02:50:43;;;;;;;6.28;5.68;;;;;;;;;;2065657;28;20170;-63
2021/05/25 02:51:43;;;;;;;5.68;5.20;;;;;;;;;;2074130;28;20176;-61
2021/05/25 02:52:45;;;;;;;5.35;4.85;;;;;;;;;;2073565;28;20258;-62
2021/05/25 02:53:45;;;;;;;6.65;5.15;;;;;;;;;;2065597;28;20220;-61
2021/05/25 02:54:45;;;;;;;5.63;5.13;;;;;;;;;;2065277;28;20205;-62
2021/05/25 02:55:46;;;;;;;6.35;5.75;;;;;;;;;;2065520;28;20180;-62
2021/05/25 02:56:46;;;;;;;5.68;5.25;;;;;;;;;;2065413;28;20641;-61
2021/05/25 02:57:46;;;;;;;6.50;5.88;;;;;;;;;;2073740;28;20264;-61
2021/05/25 02:58:46;;;;;;;6.70;6.10;;;;;;;;;;2073526;28;20181;-62
2021/05/25 02:59:47;;;;;;;6.45;5.60;;;;;;;;;;2073963;28;20188;-62
2021/05/25 03:00:47;;;;;;;6.75;6.13;;;;;;;;;;2074022;28;20180;-61
2021/05/25 03:01:48;;;;;;;7.53;5.57;;;;;;;;;;2065217;28;20216;-63
2021/05/25 03:02:49;;;;;;;5.88;5.28;;;;;;;;;;2056778;28;20225;-61
2021/05/25 03:03:49;;;;;;;5.72;5.22;;;;;;;;;;2064150;28;20173;-60
2021/05/25 03:04:50;;;;;;;6.30;5.70;;;;;;;;;;2072653;28;20181;-64
2021/05/25 03:05:50;;;;;;;5.63;5.22;;;;;;;;;;2065872;28;20188;-62
2021/05/25 03:06:50;;;;;;;6.15;5.65;;;;;;;;;;2063174;28;20241;-60
2021/05/25 03:07:51;;;;;;;5.55;5.13;;;;;;;;;;2074264;28;20577;-62
2021/05/25 03:08:52;;;;;;;5.78;5.22;;;;;;;;;;2070800;28;20191;-63
2021/05/25 03:09:52;;;;;;;5.90;5.50;;;;;;;;;;2073647;28;20211;-61
2021/05/25 03:10:52;;;;;;;5.90;5.43;;;;;;;;;;2074345;28;20169;-60
2021/05/25 03:11:53;;;;;;;5.85;5.25;;;;;;;;;;2074990;28;20522;-61
2021/05/25 03:12:53;;;;;;;5.72;5.32;;;;;;;;;;2065004;28;20198;-61
2021/05/25 03:13:53;;;;;;;6.30;5.80;;;;;;;;;;2066059;28;20169;-59
2021/05/25 03:14:54;;;;;;;6.13;5.70;;;;;;;;;;2065314;28;20301;-61
2021/05/25 03:15:54;;;;;;;7.22;6.07;;;;;;;;;;2066222;28;20536;-61
2021/05/25 03:16:54;;;;;;;6.20;5.75;;;;;;;;;;2073783;28;20173;-62
2021/05/25 03:17:55;;;;;;;6.50;6.00;;;;;;;;;;2073728;28;20166;-60
2021/05/25 03:18:55;;;;;;;6.10;5.60;;;;;;;;;;2069726;28;20582;-61
2021/05/25 03:19:55;;;;;;;6.78;6.10;;;;;;;;;;2074212;28;20181;-60
2021/05/25 03:20:55;;;;;;;7.10;6.38;;;;;;;;;;2073867;28;20225;-60
2021/05/25 03:21:56;;;;;;;6.47;5.88;;;;;;;;;;2074258;28;20947;-61
2021/05/25 03:22:56;;;;;;;6.78;5.97;;;;;;;;;;2070862;28;20204;-60
2021/05/25 03:23:56;;;;;;;7.13;6.30;;;;;;;;;;2071744;28;20192;-61
2021/05/25 03:24:57;;;;;;;6.53;6.03;;;;;;;;;;2073749;28;20211;-61
2021/05/25 03:26:00;;;;;;;7.20;6.60;;;;;;;;;;2074540;28;20204;-62
2021/05/25 03:27:00;;;;;;;7.30;6.70;;;;;;;;;;2073620;28;20177;-62
2021/05/25 03:28:00;;;;;;;7.40;6.65;;;;;;;;;;2073325;28;20207;-61
2021/05/25 03:29:01;;;;;;;8.45;7.00;;;;;;;;;;2073654;28;20223;-61
2021/05/25 03:30:06;;;;;;;7.80;6.72;;;;;;;;;;2057110;28;20198;-63
2021/05/25 03:31:06;;;;;;;7.22;6.53;;;;;;;;;;2057410;28;20182;-60
2021/05/25 03:32:07;;;;;;;7.28;6.57;;;;;;;;;;2073455;28;20231;-62
2021/05/25 03:33:07;;;;;;;6.60;6.00;;;;;;;;;;2074296;28;20220;-57
2021/05/25 03:34:07;;;;;;;7.40;6.70;;;;;;;;;;2073751;28;20169;-62
2021/05/25 03:35:08;;;;;;;6.32;5.75;;;;;;;;;;2073785;28;20655;-59
2021/05/25 03:36:09;;;;;;;7.45;6.85;;;;;;;;;;2063205;28;20177;-63
2021/05/25 03:37:09;;;;;;;6.15;5.65;;;;;;;;;;2064083;28;20212;-62
2021/05/25 03:38:10;;;;;;;7.20;6.50;;;;;;;;;;2064464;28;20603;-62
2021/05/25 03:39:10;;;;;;;6.40;5.80;;;;;;;;;;2072878;28;20192;-60
2021/05/25 03:40:11;;;;;;;9.68;5.72;;;;;;;;;;2073547;28;20205;-61
2021/05/25 03:41:11;;;;;;;7.43;6.65;;;;;;;;;;2074165;28;20809;-61
2021/05/25 03:42:12;;;;;;;7.60;6.93;;;;;;;;;;2073752;28;20188;-62
2021/05/25 03:43:12;;;;;;;7.00;6.32;;;;;;;;;;2065388;28;20637;-61
2021/05/25 03:44:15;;;;;;;7.15;6.43;;;;;;;;;;2057326;28;20690;-60
2021/05/25 03:45:16;;;;;;;7.15;6.60;;;;;;;;;;2065844;28;20237;-61
2021/05/25 03:46:17;;;;;;;7.95;7.15;;;;;;;;;;2069696;28;20311;-59
2021/05/25 03:47:18;;;;;;;8.40;7.68;;;;;;;;;;2065477;28;20224;-61
2021/05/25 03:48:19;;;;;;;10.02;7.63;;;;;;;;;;2064680;28;20197;-62
2021/05/25 03:49:19;;;;;;;9.18;8.32;;;;;;;;;;2064876;28;20177;-60
2021/05/25 03:50:21;;;;;;;8.40;7.75;;;;;;;;;;2059439;28;20179;-61
2021/05/25 03:51:21;;;;;;;10.65;8.35;;;;;;;;;;2064657;28;20236;-63
2021/05/25 03:52:21;;;;;;;8.98;8.10;;;;;;;;;;2072970;28;20638;-61
2021/05/25 03:53:22;;;;;;;9.35;8.43;;;;;;;;;;2064762;28;20216;-59
2021/05/25 03:54:27;;;;;;;9.00;8.02;;;;;;;;;;2065157;28;20653;-61
2021/05/25 03:56:59;;;;;;;9.10;8.30;;;;;;;;;;2052916;28;20198;-61
2021/05/25 03:59:18;;;;;;;7.85;7.15;;;;;;;;;;2066006;28;20161;-63
2021/05/25 04:00:19;;;;;;;7.95;7.25;;;;;;;;;;2072235;28;20264;-61
2021/05/25 04:01:26;;;;;;;9.02;8.13;;;;;;;;;;2072223;28;20639;-62
2021/05/25 04:02:26;;;;;;;8.80;7.93;;;;;;;;;;2069451;28;20183;-60
2021/05/25 04:03:27;;;;;;;10.48;8.15;;;;;;;;;;2071896;28;20192;-61
2021/05/25 04:04:27;;;;;;;10.10;7.95;;;;;;;;;;2072147;28;20212;-62
2021/05/25 04:05:27;;;;;;;9.27;7.50;;;;;;;;;;2072675;28;20153;-62
2021/05/25 04:06:27;;;;;;;11.30;7.72;;;;;;;;;;2067733;28;20231;-62
2021/05/25 04:07:28;;;;;;;9.18;8.38;;;;;;;;;;2073339;28;20172;-61
2021/05/25 04:08:28;;;;;;;9.02;7.38;;;;;;;;;;2065560;28;20252;-61
2021/05/25 04:09:28;;;;;;;8.75;7.95;;;;;;;;;;2064191;28;20654;-64
2021/05/25 04:10:29;;;;;;;9.25;8.25;;;;;;;;;;2063998;28;20244;-63
2021/05/25 04:11:29;;;;;;;9.23;8.27;;;;;;;;;;2064923;28;20189;-60
2021/05/25 04:12:29;;;;;;;10.80;8.73;;;;;;;;;;2072440;28;20180;-62
2021/05/25 04:13:29;;;;;;;8.63;7.82;;;;;;;;;;2073576;28;20173;-64
2021/05/25 04:14:30;;;;;;;9.02;8.15;;;;;;;;;;2073343;28;20175;-63
2021/05/25 04:15:30;;;;;;;9.90;8.57;;;;;;;;;;2071895;28;20200;-62
2021/05/25 04:16:31;;;;;;;9.07;8.15;;;;;;;;;;2074470;28;20177;-60
2021/05/25 04:17:31;;;;;;;10.25;8.77;;;;;;;;;;2072615;28;20191;-61
2021/05/25 04:18:32;;;;;;;10.13;8.38;;;;;;;;;;2073665;28;20195;-61
2021/05/25 04:19:32;;;;;;;9.43;8.40;;;;;;;;;;2075581;28;20172;-61
2021/05/25 04:20:32;;;;;;;9.32;8.43;;;;;;;;;;2072162;28;20235;-62
2021/05/25 04:21:32;;;;;;;10.05;9.13;;;;;;;;;;2073286;28;20265;-62
2021/05/25 04:22:33;;;;;;;10.15;9.02;;;;;;;;;;2070380;28;20179;-59
2021/05/25 04:23:33;;;;;;;10.13;9.07;;;;;;;;;;2073514;28;20599;-62
2021/05/25 04:24:33;;;;;;;9.82;8.98;;;;;;;;;;2070050;28;20256;-61
2021/05/25 04:25:34;;;;;;;9.77;8.75;;;;;;;;;;2071083;28;20177;-61
2021/05/25 04:26:34;;;;;;;9.65;8.68;;;;;;;;;;2071539;28;20645;-62
2021/05/25 04:27:34;;;;;;;10.40;9.20;;;;;;;;;;2073534;28;20192;-62
2021/05/25 04:28:35;;;;;;;9.23;8.43;;;;;;;;;;2072673;28;20546;-62
2021/05/25 04:29:35;;;;;;;10.27;9.27;;;;;;;;;;2072981;28;20287;-62
2021/05/25 04:30:35;;;;;;;10.70;9.60;;;;;;;;;;2071812;28;20177;-61
2021/05/25 04:31:36;;;;;;;9.82;8.82;;;;;;;;;;2064023;28;20668;-59
2021/05/25 04:32:36;;;;;;;10.82;9.48;;;;;;;;;;2060793;28;20180;-62
2021/05/25 04:33:36;;;;;;;9.88;9.05;;;;;;;;;;2064443;28;20247;-63
2021/05/25 04:34:36;;;;;;;10.27;9.27;;;;;;;;;;2059731;28;20166;-61
2021/05/25 04:35:37;;;;;;;9.10;8.20;;;;;;;;;;2063755;28;20204;-62
2021/05/25 04:36:37;;;;;;;7.13;6.60;;;;;;;;;;2064547;28;20177;-62
2021/05/25 04:37:37;;;;;;;8.75;8.05;;;;;;;;;;2072801;28;20165;-62
2021/05/25 04:38:37;;;;;;;10.13;9.00;;;;;;;;;;2073301;28;20630;-60
2021/05/25 04:39:38;;;;;;;8.05;7.47;;;;;;;;;;2072979;28;20549;-62
2021/05/25 04:40:41;;;;;;;9.05;8.13;;;;;;;;;;2072827;28;20177;-61
2021/05/25 04:41:41;;;;;;;9.15;8.25;;;;;;;;;;2071272;28;20220;-61
2021/05/25 04:42:41;;;;;;;8.38;7.70;;;;;;;;;;2056440;28;20182;-61
2021/05/25 04:43:41;;;;;;;7.32;6.78;;;;;;;;;;2051905;28;20174;-62
2021/05/25 04:44:42;;;;;;;8.25;7.43;;;;;;;;;;2064688;28;20256;-65
2021/05/25 04:45:44;;;;;;;8.68;7.38;;;;;;;;;;2071158;28;20604;-62
2021/05/25 04:46:44;;;;;;;7.32;6.63;;;;;;;;;;2073006;28;20264;-58
2021/05/25 04:47:44;;;;;;;6.95;6.00;;;;;;;;;;2064827;28;20178;-65
2021/05/25 04:48:44;;;;;;;7.55;6.75;;;;;;;;;;2064635;28;20201;-61
2021/05/25 04:49:45;;;;;;;7.05;6.38;;;;;;;;;;2072992;28;20197;-63
2021/05/25 04:50:45;;;;;;;7.78;6.93;;;;;;;;;;2064249;28;20177;-62
2021/05/25 04:51:45;;;;;;;8.18;6.82;;;;;;;;;;2063419;28;20176;-63
2021/05/25 04:52:46;;;;;;;6.78;6.25;;;;;;;;;;2062960;28;20178;-62
2021/05/25 04:53:47;;;;;;;7.57;6.78;;;;;;;;;;2064894;28;20205;-63
2021/05/25 04:54:47;;;;;;;6.95;6.25;;;;;;;;;;2067440;28;20578;-63
2021/05/25 04:55:47;;;;;;;6.47;5.90;;;;;;;;;;2070136;28;20204;-63
2021/05/25 04:56:48;;;;;;;6.82;6.13;;;;;;;;;;2073247;28;20180;-63
2021/05/25 04:57:51;;;;;;;7.20;6.50;;;;;;;;;;2071496;28;20590;-63
2021/05/25 04:58:51;;;;;;;7.10;6.43;;;;;;;;;;2069842;28;20169;-62
2021/05/25 04:59:52;;;;;;;7.00;6.30;;;;;;;;;;2070149;28;20178;-64
2021/05/25 05:00:52;;;;;;;8.90;6.78;;;;;;;;;;2072254;28;20188;-62
2021/05/25 05:01:52;;;;;;;6.68;5.82;;;;;;;;;;2065254;28;20244;-62
2021/05/25 05:02:53;;;;;;;6.57;5.97;;;;;;;;;;2064007;28;20300;-63
2021/05/25 05:03:54;;;;;;;6.80;6.15;;;;;;;;;;2061793;28;20178;-63
2021/05/25 05:04:54;;;;;;;6.88;6.13;;;;;;;;;;2065190;28;20177;-62
2021/05/25 05:05:55;;;;;;;10.15;6.60;;;;;;;;;;2070687;28;20240;-63
2021/05/25 05:06:55;;;;;;;7.18;6.57;;;;;;;;;;2073794;28;20181;-64
2021/05/25 05:07:55;;;;;;;10.45;7.28;;;;;;;;;;2074210;28;20283;-64
2021/05/25 05:08:55;;;;;;;6.68;6.05;;;;;;;;;;2068275;28;20276;-65
2021/05/25 05:09:56;;;;;;;6.88;6.22;;;;;;;;;;2066462;28;20216;-62
2021/05/25 05:10:56;;;;;;;6.88;6.22;;;;;;;;;;2072464;28;20181;-61
2021/05/25 05:11:56;;;;;;;6.60;5.85;;;;;;;;;;2081156;28;20183;-60
2021/05/25 05:12:56;;;;;;;6.10;5.70;;;;;;;;;;2071863;28;20196;-61
2021/05/25 05:13:57;;;;;;;6.15;5.60;;;;;;;;;;2066737;28;20263;-60
2021/05/25 05:14:57;;;;;;;7.20;6.28;;;;;;;;;;2067961;28;20622;-61
2021/05/25 05:15:57;;;;;;;6.40;5.80;;;;;;;;;;2074382;28;20212;-60
2021/05/25 05:16:58;;;;;;;7.60;6.00;;;;;;;;;;2064734;28;20232;-57
2021/05/25 05:17:58;;;;;;;5.80;5.40;;;;;;;;;;2064485;28;20683;-59
2021/05/25 05:18:58;;;;;;;6.35;5.75;;;;;;;;;;2063905;28;20196;-58
2021/05/25 05:19:59;;;;;;;5.25;4.88;;;;;;;;;;2070756;28;20181;-57
2021/05/25 05:20:59;;;;;;;7.22;6.05;;;;;;;;;;2072883;28;20247;-57
2021/05/25 05:21:59;;;;;;;5.72;5.18;;;;;;;;;;2073118;28;20184;-56
2021/05/25 05:23:00;;;;;;;6.72;5.20;;;;;;;;;;2073014;28;20196;-60
2021/05/25 05:24:00;;;;;;;5.65;5.25;;;;;;;;;;2073128;28;20169;-61
2021/05/25 05:25:00;;;;;;;6.07;5.57;;;;;;;;;;2066218;28;20194;-53
2021/05/25 05:26:01;;;;;;;6.25;5.75;;;;;;;;;;2064084;28;20626;-60
2021/05/25 05:27:01;;;;;;;6.18;5.35;;;;;;;;;;2072826;28;20227;-58
2021/05/25 05:28:02;;;;;;;8.38;5.45;;;;;;;;;;2072883;28;20220;-59
2021/05/25 05:29:02;;;;;;;7.65;5.60;;;;;;;;;;2072039;28;20189;-61
2021/05/25 05:30:06;;;;;;;5.35;4.85;;;;;;;;;;2071535;28;20200;-61
2021/05/25 05:31:06;;;;;;;6.35;5.20;;;;;;;;;;2062542;28;20201;-60
2021/05/25 05:32:06;;;;;;;5.55;4.38;;;;;;;;;;2063964;28;20169;-60
2021/05/25 05:33:09;;;;;;;4.80;4.40;;;;;;;;;;2071914;28;20197;-58
2021/05/25 05:34:09;;;;;;;5.20;4.80;;;;;;;;;;2072501;28;20649;-57
2021/05/25 05:35:09;;;;;;;4.97;4.60;;;;;;;;;;2073054;28;20173;-56
2021/05/25 05:36:11;;;;;;;5.00;4.60;;;;;;;;;;2072435;28;20176;-58
2021/05/25 05:37:11;;;;;;;6.35;4.85;;;;;;;;;;2073146;28;20235;-57
2021/05/25 05:38:12;;;;;;;6.25;4.63;;;;;;;;;;2072686;28;20222;-57
2021/05/25 05:39:12;;;;;;;5.60;4.60;;;;;;;;;;2072269;28;20177;-55
2021/05/25 05:40:13;;;;;;;4.85;4.20;;;;;;;;;;2072520;28;20188;-60
2021/05/25 05:41:14;;;;;;;4.60;4.20;;;;;;;;;;2062671;28;20251;-58
2021/05/25 05:42:15;;;;;;;4.78;4.38;;;;;;;;;;2072949;28;20197;-56
2021/05/25 05:43:15;;;;;;;4.25;3.88;;;;;;;;;;2065016;28;20869;-57
2021/05/25 05:44:16;;;;;;;4.10;3.75;;;;;;;;;;2055510;28;20257;-56
2021/05/25 05:45:17;;;;;;;4.05;3.75;;;;;;;;;;2056612;28;20189;-61
2021/05/25 05:46:17;;;;;;;4.68;4.38;;;;;;;;;;2063919;28;20177;-57
2021/05/25 05:47:18;;;;;;;6.07;4.55;;;;;;;;;;2070659;28;20656;-60
2021/05/25 05:48:18;;;;;;;6.53;4.30;;;;;;;;;;2065965;28;20193;-59
2021/05/25 05:49:21;;;;;;;5.40;4.95;;;;;;;;;;2068910;28;20180;-57
2021/05/25 05:50:22;;;;;;;5.15;4.65;;;;;;;;;;2070816;28;20556;-58
2021/05/25 05:51:22;;;;;;;4.93;4.53;;;;;;;;;;2063163;28;20200;-58
2021/05/25 05:52:23;;;;;;;5.07;4.43;;;;;;;;;;2062238;28;20181;-56
2021/05/25 05:53:23;;;;;;;5.47;5.07;;;;;;;;;;2071216;28;20212;-58
2021/05/25 05:54:23;;;;;;;5.40;5.00;;;;;;;;;;2063372;28;20265;-53
2021/05/25 05:55:24;;;;;;;5.68;5.18;;;;;;;;;;2063336;28;20181;-58
2021/05/25 05:56:24;;;;;;;5.28;4.78;;;;;;;;;;2063958;28;20162;-57
2021/05/25 05:57:25;;;;;;;5.35;4.95;;;;;;;;;;2061784;28;20177;-61
2021/05/25 05:58:25;;;;;;;6.18;5.57;;;;;;;;;;2071871;28;20169;-54
2021/05/25 05:59:25;;;;;;;6.05;5.40;;;;;;;;;;2071861;28;20312;-59
2021/05/25 06:00:26;;;;;;;5.93;5.43;;;;;;;;;;2071785;28;20219;-58
2021/05/25 06:01:26;;;;;;;5.75;5.25;;;;;;;;;;2072651;28;20256;-55
2021/05/25 06:02:26;;;;;;;6.47;5.07;;;;;;;;;;2071062;28;20177;-59
2021/05/25 06:03:26;;;;;;;6.43;5.78;;;;;;;;;;2073161;28;20192;-59
2021/05/25 06:04:27;;;;;;;6.28;5.68;;;;;;;;;;2071978;28;20165;-58
2021/05/25 06:05:27;;;;;;;7.15;6.47;;;;;;;;;;2073172;28;20587;-55
2021/05/25 06:06:27;;;;;;;6.20;5.70;;;;;;;;;;2064358;28;20530;-58